Time;durP1;ratioP1;P1;durP2;ratioP2;P2;SDS_P1;SDS_P2;PMS_P1;PMS_P2;Temp;Humidity;BMP_temperature;BMP_pressure;BME280_temperature;BME280_humidity;BME280_pressure;Samples;Min_cycle;Max_cycle;Signal;HPM_P1;HPM_P2
2021/06/11 00:06:52;;;;;;;1999.90;999.90;;;;;;;21.57;55.67;101318.13;15593638;28;20107;-63
2021/06/11 00:14:25;;;;;;;1999.90;999.90;;;;;;;21.51;56.22;101318.88;15624723;28;20490;-63
2021/06/11 00:21:56;;;;;;;;;;;;;;;21.51;55.72;101314.00;15621363;28;20049;-62
2021/06/11 00:29:30;;;;;;;1999.90;999.90;;;;;;;21.30;57.08;101322.34;15619538;28;19921;-64
2021/06/11 00:37:02;;;;;;;1999.90;999.90;;;;;;;21.19;57.05;101327.91;15619692;28;20061;-64
2021/06/11 00:44:35;;;;;;;1999.90;999.90;;;;;;;21.12;57.61;101319.31;15618604;28;20056;-64
2021/06/11 00:52:08;;;;;;;1999.90;999.90;;;;;;;21.02;57.82;101318.00;15623466;28;20044;-64
2021/06/11 00:59:43;;;;;;;1999.90;999.90;;;;;;;21.12;58.18;101319.31;15652767;22;20122;-72
2021/06/11 01:07:15;;;;;;;1999.90;999.90;;;;;;;20.98;58.69;101316.34;15611338;28;20045;-74
2021/06/11 01:14:49;;;;;;;1999.90;999.90;;;;;;;20.95;57.81;101322.81;15627845;23;20068;-84
2021/06/11 01:22:35;;;;;;;1999.90;999.90;;;;;;;20.84;58.44;101316.19;15655694;28;20092;-82
2021/06/11 01:30:17;;;;;;;1999.90;999.90;;;;;;;20.64;59.08;101307.88;15626670;28;20045;-83
2021/06/11 01:37:56;;;;;;;1999.90;999.90;;;;;;;20.62;59.95;101323.63;15674169;28;20029;-80
2021/06/11 01:45:32;;;;;;;1999.90;999.90;;;;;;;20.51;60.09;101309.34;15670822;28;20076;-83
2021/06/11 01:53:12;;;;;;;1999.90;999.90;;;;;;;20.40;60.73;101286.50;15633794;28;20052;-85
2021/06/11 02:00:46;;;;;;;1999.90;999.90;;;;;;;20.43;60.20;101296.31;15632665;28;20041;-83
2021/06/11 02:08:18;;;;;;;1999.90;999.90;;;;;;;20.35;60.73;101295.34;15632302;28;20115;-82
2021/06/11 02:15:53;;;;;;;1999.90;999.90;;;;;;;20.37;60.65;101294.97;15631628;28;20049;-84
2021/06/11 02:23:25;;;;;;;1999.90;999.90;;;;;;;20.48;59.85;101292.28;15648410;28;20452;-84
2021/06/11 02:30:58;;;;;;;1999.90;999.90;;;;;;;20.50;61.11;101310.53;15645566;28;20052;-80
2021/06/11 02:38:35;;;;;;;1999.90;999.90;;;;;;;20.18;61.32;101299.59;15644647;28;20083;-83
2021/06/11 02:46:14;;;;;;;1999.90;999.90;;;;;;;19.77;62.00;101295.78;15608141;28;20497;-80
2021/06/11 02:53:46;;;;;;;1999.90;999.90;;;;;;;20.02;61.91;101301.81;15627159;28;20045;-81
2021/06/11 03:01:20;;;;;;;1999.90;999.90;;;;;;;20.28;62.69;101309.44;15627893;28;20049;-81
2021/06/11 03:08:52;;;;;;;1999.90;999.90;;;;;;;20.16;61.64;101313.31;15629788;28;20516;-82
2021/06/11 03:16:27;;;;;;;1999.90;999.90;;;;;;;20.18;62.19;101322.25;15630788;28;20060;-80
2021/06/11 03:24:05;;;;;;;1999.90;999.90;;;;;;;20.11;61.94;101312.84;15615128;28;20115;-80
2021/06/11 03:31:43;;;;;;;1999.90;999.90;;;;;;;20.27;62.65;101327.63;15631037;28;20574;-82
2021/06/11 03:39:19;;;;;;;1999.90;999.90;;;;;;;20.20;62.83;101333.19;15629796;28;20049;-81
2021/06/11 03:46:53;;;;;;;1999.90;999.90;;;;;;;20.29;62.96;101330.09;15627285;28;20041;-83
2021/06/11 03:54:27;;;;;;;1999.90;999.90;;;;;;;20.26;63.22;101311.03;15626106;28;20519;-81
2021/06/11 04:02:01;;;;;;;1999.90;999.90;;;;;;;20.33;62.58;101314.78;15624518;28;20053;-80
2021/06/11 04:09:43;;;;;;;1999.90;999.90;;;;;;;20.34;63.43;101295.75;15640589;28;20049;-79
2021/06/11 04:17:21;;;;;;;1999.90;999.90;;;;;;;20.23;63.32;101297.63;15654567;28;20050;-82
2021/06/11 04:24:56;;;;;;;1999.90;999.90;;;;;;;20.40;63.31;101300.66;15636676;28;20129;-83
2021/06/11 04:32:30;;;;;;;1999.90;999.90;;;;;;;20.49;63.49;101302.44;15614801;28;20042;-83
2021/06/11 04:40:02;;;;;;;1999.90;999.90;;;;;;;20.68;63.61;101296.56;15613580;28;20045;-82
2021/06/11 04:47:38;;;;;;;1999.90;999.90;;;;;;;21.13;63.01;101306.75;15643573;28;20105;-84
2021/06/11 04:55:14;;;;;;;1999.90;999.90;;;;;;;21.54;61.38;101301.06;15632911;28;20065;-82
2021/06/11 05:03:00;;;;;;;1999.90;999.90;;;;;;;21.81;61.96;101288.28;15627281;28;20421;-84
2021/06/11 05:10:38;;;;;;;1999.90;999.90;;;;;;;22.28;60.34;101311.28;15623715;28;20451;-83
2021/06/11 05:18:15;;;;;;;1999.90;999.90;;;;;;;22.79;54.21;101302.50;15640026;28;20045;-85
2021/06/11 05:25:54;;;;;;;1999.90;999.90;;;;;;;23.33;53.23;101304.25;15643428;28;20045;-85
2021/06/11 05:33:31;;;;;;;1999.90;999.90;;;;;;;24.03;51.72;101312.34;15620102;28;20046;-84
2021/06/11 05:41:15;;;;;;;1999.90;999.90;;;;;;;24.45;50.10;101300.81;15606046;28;20084;-83
2021/06/11 05:48:52;;;;;;;1999.90;999.90;;;;;;;24.75;47.50;101319.41;15630603;28;20493;-84
2021/06/11 05:56:24;;;;;;;1999.90;999.90;;;;;;;25.44;46.61;101323.47;15648145;28;20061;-85
2021/06/11 06:03:57;;;;;;;1999.90;999.90;;;;;;;25.87;44.91;101321.03;15658725;28;20084;-82
2021/06/11 06:11:28;;;;;;;1999.90;999.90;;;;;;;25.98;44.56;101313.16;15649677;28;20065;-81
2021/06/11 06:19:01;;;;;;;1999.90;999.90;;;;;;;26.60;46.66;101314.91;15653458;28;20413;-83
2021/06/11 06:26:34;;;;;;;1999.90;999.90;;;;;;;27.00;42.09;101321.69;15657233;28;20049;-83
2021/06/11 06:34:07;;;;;;;1999.90;999.90;;;;;;;27.08;40.50;101301.53;15641250;28;20045;-83
2021/06/11 06:41:39;;;;;;;1999.90;999.90;;;;;;;27.82;40.71;101313.81;15659124;28;20064;-82
2021/06/11 06:49:12;;;;;;;1999.90;999.90;;;;;;;28.50;36.41;101313.31;15642712;28;20068;-83
2021/06/11 06:56:44;;;;;;;1999.90;999.90;;;;;;;27.96;38.18;101304.16;15652116;28;20049;-84
2021/06/11 07:04:18;;;;;;;1999.90;999.90;;;;;;;28.90;36.82;101298.94;15680951;28;20060;-82
2021/06/11 07:11:51;;;;;;;1999.90;999.90;;;;;;;29.26;38.39;101310.34;15676327;28;20094;-85
2021/06/11 07:19:24;;;;;;;1999.90;999.90;;;;;;;29.24;36.68;101290.69;15662489;28;20240;-83
2021/06/11 07:26:56;;;;;;;1999.90;999.90;;;;;;;29.63;35.56;101302.47;15662577;28;20045;-83
2021/06/11 07:34:29;;;;;;;;;;;;;;;30.48;36.27;101311.59;15668614;28;20037;-84
2021/06/11 07:42:01;;;;;;;1999.90;999.90;;;;;;;30.73;34.33;101302.22;15674150;28;19943;-85
2021/06/11 07:49:34;;;;;;;1999.90;999.90;;;;;;;31.26;32.73;101293.97;15659676;28;20111;-83
2021/06/11 07:57:07;;;;;;;1999.90;999.90;;;;;;;31.29;33.74;101307.47;15652164;28;20108;-84
2021/06/11 08:04:40;;;;;;;1999.90;999.90;;;;;;;31.44;33.15;101308.59;15671033;28;20038;-84
2021/06/11 08:12:13;;;;;;;1999.90;999.90;;;;;;;30.98;33.13;101292.81;15667168;28;20588;-84
2021/06/11 08:19:47;;;;;;;1999.90;999.90;;;;;;;31.12;36.56;101298.09;15657981;28;20052;-83
2021/06/11 08:27:18;;;;;;;1999.90;999.90;;;;;;;32.07;33.26;101295.28;15659286;28;20129;-84
2021/06/11 08:34:51;;;;;;;1999.90;999.90;;;;;;;31.74;33.87;101289.03;15673715;28;20061;-83
2021/06/11 08:42:29;;;;;;;1999.90;999.90;;;;;;;31.66;35.33;101291.34;15638270;28;20049;-84
2021/06/11 08:50:04;;;;;;;1999.90;999.90;;;;;;;30.50;37.06;101291.81;15650486;28;20045;-85
2021/06/11 08:57:35;;;;;;;1999.90;999.90;;;;;;;29.11;37.41;101306.22;15641851;28;20045;-82
2021/06/11 09:05:18;;;;;;;;;;;;;;;32.41;33.05;101305.97;15635164;28;20485;-83
2021/06/11 09:12:53;;;;;;;1999.90;999.90;;;;;;;34.07;33.42;101305.31;15630448;28;19921;-83
2021/06/11 09:20:31;;;;;;;1999.90;999.90;;;;;;;32.31;32.46;101307.22;15674495;28;20056;-82
2021/06/11 09:28:05;;;;;;;1999.90;999.90;;;;;;;33.07;31.96;101314.56;15652938;28;20101;-82
2021/06/11 09:35:40;;;;;;;1999.90;999.90;;;;;;;33.22;32.25;101289.56;15651269;28;20105;-83
2021/06/11 09:43:12;;;;;;;1999.90;999.90;;;;;;;34.58;32.26;101293.88;15672653;28;20038;-82
2021/06/11 09:50:49;;;;;;;1999.90;999.90;;;;;;;33.95;31.32;101298.41;15675317;28;20326;-82
2021/06/11 09:58:23;;;;;;;1999.90;999.90;;;;;;;33.75;31.52;101298.06;15687450;28;20052;-82
2021/06/11 10:05:57;;;;;;;1999.90;999.90;;;;;;;34.11;29.97;101298.09;15679988;28;20037;-83
2021/06/11 10:13:34;;;;;;;1999.90;999.90;;;;;;;34.78;27.89;101290.44;15674820;28;20048;-83
2021/06/11 10:21:08;;;;;;;1999.90;999.90;;;;;;;34.21;32.18;101298.09;15673821;28;20120;-82
2021/06/11 10:28:41;;;;;;;1999.90;999.90;;;;;;;35.11;28.55;101286.78;15675241;28;20037;-83
2021/06/11 10:36:38;;;;;;;1999.90;999.90;;;;;;;36.80;28.40;101289.81;15669918;28;20052;-84
2021/06/11 10:44:29;;;;;;;1999.90;999.90;;;;;;;35.47;28.29;101289.50;15663639;28;20184;-83
2021/06/11 10:52:29;;;;;;;1999.90;999.90;;;;;;;35.87;29.11;101291.19;15667158;28;20068;-81
2021/06/11 11:00:01;;;;;;;1999.90;999.90;;;;;;;34.75;28.90;101294.31;15663535;28;20053;-82
2021/06/11 11:07:50;;;;;;;1999.90;999.90;;;;;;;35.30;29.41;101292.00;15647132;28;20069;-83
2021/06/11 11:15:31;;;;;;;1999.90;999.90;;;;;;;37.04;29.35;101283.88;15669733;28;20520;-82
2021/06/11 11:23:07;;;;;;;1999.90;999.90;;;;;;;33.35;31.40;101283.66;15671550;28;20042;-83
2021/06/11 11:30:40;;;;;;;1999.90;999.90;;;;;;;32.61;32.30;101285.41;15660563;28;20041;-82
2021/06/11 11:38:13;;;;;;;1999.90;999.90;;;;;;;35.36;29.09;101285.53;15675125;28;20048;-83
2021/06/11 11:45:45;;;;;;;1999.90;999.90;;;;;;;35.72;27.55;101276.59;15668324;28;20340;-83
2021/06/11 11:53:18;;;;;;;1999.90;999.90;;;;;;;35.95;28.19;101259.66;15663391;28;20033;-84
2021/06/11 12:00:50;;;;;;;1999.90;999.90;;;;;;;36.41;26.23;101260.06;15636046;28;20136;-82
2021/06/11 12:08:23;;;;;;;1999.90;999.90;;;;;;;36.02;27.47;101254.28;15632228;28;20046;-82
2021/06/11 12:15:58;;;;;;;1999.90;999.90;;;;;;;36.63;27.19;101251.72;15641224;28;20050;-82
2021/06/11 12:23:31;;;;;;;1999.90;999.90;;;;;;;36.48;25.29;101236.41;15642875;28;20046;-82
2021/06/11 12:31:05;;;;;;;1999.90;999.90;;;;;;;37.96;24.38;101245.47;15672811;28;20091;-82
2021/06/11 12:38:38;;;;;;;1999.90;999.90;;;;;;;38.92;25.20;101229.69;15638655;28;20038;-82
2021/06/11 12:46:10;;;;;;;1999.90;999.90;;;;;;;38.64;22.93;101221.50;15632895;28;20128;-83
2021/06/11 12:53:45;;;;;;;1999.90;999.90;;;;;;;39.76;23.51;101224.34;15632406;28;20049;-82
2021/06/11 13:01:18;;;;;;;1999.90;999.90;;;;;;;38.05;25.63;101229.94;15574499;28;20125;-82
2021/06/11 13:08:51;;;;;;;1999.90;999.90;;;;;;;33.26;30.10;101221.63;15629538;22;20045;-74
2021/06/11 13:16:23;;;;;;;1999.90;999.90;;;;;;;31.90;33.23;101205.22;15687477;22;20045;-66
2021/06/11 13:23:57;;;;;;;1999.90;999.90;;;;;;;32.33;32.24;101209.38;15655531;28;20115;-66
2021/06/11 13:31:29;;;;;;;1999.90;999.90;;;;;;;32.64;30.95;101209.38;15641082;28;20096;-66
2021/06/11 13:39:03;;;;;;;1999.90;999.90;;;;;;;31.82;33.73;101204.66;15657125;28;20094;-67
2021/06/11 13:46:34;;;;;;;1999.90;999.90;;;;;;;31.65;33.93;101200.31;15655452;28;20122;-67
2021/06/11 13:54:11;;;;;;;;;;;;;;;32.45;33.60;101194.03;15639144;28;20048;-66
2021/06/11 14:01:43;;;;;;;1999.90;999.90;;;;;;;32.79;33.01;101186.47;15654563;28;20020;-67
2021/06/11 14:09:16;;;;;;;1999.90;999.90;;;;;;;32.03;33.06;101184.94;15672720;28;20060;-65
2021/06/11 14:16:47;;;;;;;1999.90;999.90;;;;;;;31.71;33.11;101186.91;15653661;28;20135;-67
2021/06/11 14:24:20;;;;;;;1999.90;999.90;;;;;;;31.68;34.85;101181.25;15664128;28;20175;-66
2021/06/11 14:31:52;;;;;;;1999.90;999.90;;;;;;;32.00;35.30;101171.47;15666041;28;20044;-67
2021/06/11 14:39:28;;;;;;;;;;;;;;;31.96;35.69;101162.13;15683533;28;20053;-67
2021/06/11 14:47:02;;;;;;;1999.90;999.90;;;;;;;31.72;35.19;101167.53;15664525;28;19924;-67
2021/06/11 14:54:36;;;;;;;1999.90;999.90;;;;;;;31.44;35.00;101173.06;15681776;28;20056;-65
2021/06/11 15:02:08;;;;;;;1999.90;999.90;;;;;;;30.98;36.30;101168.91;15647319;28;20049;-66
2021/06/11 15:09:41;;;;;;;1999.90;999.90;;;;;;;30.98;36.67;101163.97;15646270;28;20047;-66
2021/06/11 15:17:13;;;;;;;1999.90;999.90;;;;;;;30.65;36.10;101165.50;15680762;28;20405;-65
2021/06/11 15:24:46;;;;;;;1999.90;999.90;;;;;;;30.63;36.95;101167.97;15680489;28;20474;-67
2021/06/11 15:32:19;;;;;;;1999.90;999.90;;;;;;;30.31;37.28;101149.66;15660864;28;20509;-66
2021/06/11 15:39:52;;;;;;;1999.90;999.90;;;;;;;30.26;36.55;101146.56;15660842;28;20044;-67
2021/06/11 15:47:23;;;;;;;1999.90;999.90;;;;;;;30.12;37.19;101142.88;15678055;28;20037;-66
2021/06/11 15:54:57;;;;;;;1999.90;999.90;;;;;;;29.65;37.38;101138.94;15678540;28;20405;-67
2021/06/11 16:02:29;;;;;;;1999.90;999.90;;;;;;;29.54;37.38;101131.41;15677849;28;20045;-65
2021/06/11 16:10:02;;;;;;;1999.90;999.90;;;;;;;29.16;37.40;101136.97;15658981;28;20109;-66
2021/06/11 16:17:35;;;;;;;1999.90;999.90;;;;;;;29.51;37.14;101134.41;15659134;28;20047;-65
2021/06/11 16:25:09;;;;;;;;;;;;;;;29.09;37.50;101125.69;15677597;28;20114;-66
2021/06/11 16:32:44;;;;;;;1999.90;999.90;;;;;;;29.26;37.48;101117.81;15675620;28;20030;-66
2021/06/11 16:40:18;;;;;;;1999.90;999.90;;;;;;;29.14;37.09;101115.69;15640961;28;20045;-66
2021/06/11 16:47:49;;;;;;;1999.90;999.90;;;;;;;29.07;38.22;101108.06;15675519;28;20494;-66
2021/06/11 16:55:25;;;;;;;1999.90;999.90;;;;;;;29.04;37.52;101108.97;15660556;28;20108;-66
2021/06/11 17:02:59;;;;;;;1999.90;999.90;;;;;;;28.61;38.46;101104.31;15671768;28;20053;-67
2021/06/11 17:10:32;;;;;;;1999.90;999.90;;;;;;;28.31;39.02;101108.31;15672261;28;20048;-66
2021/06/11 17:18:05;;;;;;;1999.90;999.90;;;;;;;28.25;39.35;101120.78;15676774;28;20295;-61
2021/06/11 17:25:38;;;;;;;;;;;;;;;28.15;39.22;101125.50;15673182;28;20051;-60
2021/06/11 17:33:18;;;;;;;1999.90;999.90;;;;;;;28.25;39.04;101121.56;15655054;28;20331;-60
2021/06/11 17:40:58;;;;;;;1999.90;999.90;;;;;;;28.27;39.96;101107.59;15654488;28;20048;-61
2021/06/11 17:48:34;;;;;;;1999.90;999.90;;;;;;;28.18;40.53;101113.94;15671573;28;20064;-61
2021/06/11 17:56:13;;;;;;;1999.90;999.90;;;;;;;28.18;40.68;101118.88;15676286;28;20132;-61
2021/06/11 18:03:46;;;;;;;1999.90;999.90;;;;;;;28.22;40.31;101119.56;15649090;28;20175;-61
2021/06/11 18:11:21;;;;;;;1999.90;999.90;;;;;;;27.99;42.47;101111.91;15665677;28;20051;-60
2021/06/11 18:19:00;;;;;;;1999.90;999.90;;;;;;;27.76;41.71;101107.09;15665496;28;20497;-60
2021/06/11 18:26:34;;;;;;;1999.90;999.90;;;;;;;27.63;43.42;101100.38;15682989;28;20359;-59
2021/06/11 18:34:05;;;;;;;1999.90;999.90;;;;;;;27.40;43.70;101104.13;15665984;28;20127;-59
2021/06/11 18:41:40;;;;;;;1999.90;999.90;;;;;;;27.23;44.07;101093.84;15665373;28;20501;-60
2021/06/11 18:49:12;;;;;;;1999.90;999.90;;;;;;;27.06;44.23;101086.38;15681728;28;20085;-55
2021/06/11 18:56:48;;;;;;;1999.90;999.90;;;;;;;26.85;44.97;101087.56;15642855;22;20099;-61
2021/06/11 19:04:23;;;;;;;1999.90;999.90;;;;;;;26.62;46.04;101085.50;15620878;28;20115;-67
2021/06/11 19:11:59;;;;;;;1999.90;999.90;;;;;;;26.34;46.40;101095.31;15617504;28;20478;-66
2021/06/11 19:19:35;;;;;;;1999.90;999.90;;;;;;;26.07;47.64;101098.19;15622507;28;20050;-65
2021/06/11 19:27:22;;;;;;;1999.90;999.90;;;;;;;25.86;48.70;101105.03;15617031;28;20045;-63
2021/06/11 19:34:55;;;;;;;1999.90;999.90;;;;;;;25.63;48.59;101106.50;15627756;28;20063;-66
2021/06/11 19:42:28;;;;;;;1999.90;999.90;;;;;;;25.30;51.57;101110.97;15651780;28;20171;-63
2021/06/11 19:50:03;;;;;;;1999.90;999.90;;;;;;;25.03;51.93;101113.72;15617082;28;20037;-64
2021/06/11 19:57:36;;;;;;;1999.90;999.90;;;;;;;24.79;51.96;101111.84;15623948;28;20036;-65
2021/06/11 20:05:09;;;;;;;1999.90;999.90;;;;;;;24.59;52.00;101119.38;15677564;28;20056;-63
2021/06/11 20:12:41;;;;;;;1999.90;999.90;;;;;;;24.41;52.26;101117.47;15638720;28;20398;-62
2021/06/11 20:20:14;;;;;;;1999.90;999.90;;;;;;;24.42;54.14;101107.69;15678348;28;20053;-66
2021/06/11 20:27:47;;;;;;;1999.90;999.90;;;;;;;24.26;52.98;101117.94;15639464;28;20568;-66
2021/06/11 20:35:19;;;;;;;1999.90;999.90;;;;;;;24.12;53.91;101113.16;15636885;28;20128;-61
2021/06/11 20:42:52;;;;;;;1999.90;999.90;;;;;;;24.11;53.50;101112.34;15658857;28;20414;-69
2021/06/11 20:50:24;;;;;;;1999.90;999.90;;;;;;;24.02;54.29;101111.19;15620046;28;20111;-64
2021/06/11 20:57:58;;;;;;;1999.90;999.90;;;;;;;24.08;53.98;101109.53;15678154;28;20442;-62
2021/06/11 21:05:30;;;;;;;1999.90;999.90;;;;;;;23.95;54.95;101102.66;15640617;28;20111;-62
2021/06/11 21:13:03;;;;;;;1999.90;999.90;;;;;;;23.86;55.38;101100.25;15638037;28;20044;-63
2021/06/11 21:20:35;;;;;;;1999.90;999.90;;;;;;;23.79;56.57;101100.31;15671650;28;20223;-65
2021/06/11 21:28:08;;;;;;;1999.90;999.90;;;;;;;23.76;55.28;101104.81;15662096;28;20099;-63
2021/06/11 21:35:40;;;;;;;1999.90;999.90;;;;;;;23.57;56.15;101110.97;15658725;28;20246;-63
2021/06/11 21:43:13;;;;;;;1999.90;999.90;;;;;;;23.45;56.89;101108.56;15651464;28;20052;-60
2021/06/11 21:50:44;;;;;;;1999.90;999.90;;;;;;;23.30;56.46;101111.44;15678285;28;20502;-62
2021/06/11 21:58:17;;;;;;;1999.90;999.90;;;;;;;23.16;56.93;101108.66;15659957;28;20049;-63
2021/06/11 22:05:49;;;;;;;1999.90;999.90;;;;;;;22.94;57.68;101112.75;15645377;28;20517;-63
2021/06/11 22:13:22;;;;;;;1999.90;999.90;;;;;;;22.84;59.11;101108.69;15637465;28;20536;-63
2021/06/11 22:20:54;;;;;;;1999.90;999.90;;;;;;;22.71;59.66;101105.41;15678142;28;20048;-63
2021/06/11 22:28:27;;;;;;;1999.90;999.90;;;;;;;22.60;60.11;101103.78;15653983;28;20046;-61
2021/06/11 22:35:59;;;;;;;1999.90;999.90;;;;;;;22.38;60.04;101106.63;15623486;28;20126;-63
2021/06/11 22:43:32;;;;;;;1999.90;999.90;;;;;;;22.35;60.28;101100.94;15655078;28;20044;-64
2021/06/11 22:51:04;;;;;;;1999.90;999.90;;;;;;;22.17;61.08;101100.91;15673410;28;20045;-62
2021/06/11 22:58:39;;;;;;;1999.90;999.90;;;;;;;22.06;61.47;101091.50;15638106;28;20044;-63
2021/06/11 23:06:11;;;;;;;1999.90;999.90;;;;;;;21.92;61.26;101085.81;15641030;28;20053;-61
2021/06/11 23:13:44;;;;;;;1999.90;999.90;;;;;;;21.83;62.24;101074.81;15651328;28;20042;-63
2021/06/11 23:21:16;;;;;;;;;;;;;;;21.79;62.39;101071.16;15663604;28;20045;-63
2021/06/11 23:28:49;;;;;;;1999.90;999.90;;;;;;;21.63;62.73;101065.84;15651475;28;19927;-62
2021/06/11 23:36:20;;;;;;;;;;;;;;;21.72;63.42;101062.63;15641041;28;20041;-61
2021/06/11 23:43:53;;;;;;;1999.90;999.90;;;;;;;21.64;63.89;101058.13;15652255;28;19921;-62
2021/06/11 23:51:26;;;;;;;;;;;;;;;21.65;63.44;101057.72;15660884;28;20221;-63
2021/06/11 23:59:00;;;;;;;1999.90;999.90;;;;;;;21.50;63.37;101053.22;15647866;28;19960;-63
